sensor_id;sensor_type;location;lat;lon;timestamp;pressure;altitude;pressure_sealevel;temperature;humidity
5755;BME280;2902;42.130;24.732;2023-04-05T00:01:58;98832.84;;;6.78;79.29
5755;BME280;2902;42.130;24.732;2023-04-05T00:04:26;98831.91;;;6.85;79.02
5755;BME280;2902;42.130;24.732;2023-04-05T00:06:52;98834.53;;;6.85;78.69
5755;BME280;2902;42.130;24.732;2023-04-05T00:09:19;98830.09;;;6.86;78.25
5755;BME280;2902;42.130;24.732;2023-04-05T00:11:47;98838.25;;;6.91;79.22
5755;BME280;2902;42.130;24.732;2023-04-05T00:14:14;98829.84;;;6.81;79.15
5755;BME280;2902;42.130;24.732;2023-04-05T00:16:41;98827.22;;;6.81;79.46
5755;BME280;2902;42.130;24.732;2023-04-05T00:19:09;98834.84;;;6.76;79.67
5755;BME280;2902;42.130;24.732;2023-04-05T00:21:37;98829.63;;;6.82;79.08
5755;BME280;2902;42.130;24.732;2023-04-05T00:24:05;98833.72;;;6.85;79.29
5755;BME280;2902;42.130;24.732;2023-04-05T00:26:32;98838.56;;;6.81;79.46
5755;BME280;2902;42.130;24.732;2023-04-05T00:28:59;98837.25;;;6.71;79.40
5755;BME280;2902;42.130;24.732;2023-04-05T00:31:25;98835.25;;;6.73;79.74
5755;BME280;2902;42.130;24.732;2023-04-05T00:33:52;98840.88;;;6.70;80.19
5755;BME280;2902;42.130;24.732;2023-04-05T00:36:20;98832.72;;;6.65;80.54
5755;BME280;2902;42.130;24.732;2023-04-05T00:38:47;98830.53;;;6.68;80.50
5755;BME280;2902;42.130;24.732;2023-04-05T00:41:14;98831.34;;;6.69;80.34
5755;BME280;2902;42.130;24.732;2023-04-05T00:43:41;98841.63;;;6.64;80.19
5755;BME280;2902;42.130;24.732;2023-04-05T00:46:08;98838.13;;;6.57;79.41
5755;BME280;2902;42.130;24.732;2023-04-05T00:48:35;98837.72;;;6.60;79.50
5755;BME280;2902;42.130;24.732;2023-04-05T00:51:03;98834.66;;;6.56;79.62
5755;BME280;2902;42.130;24.732;2023-04-05T00:53:34;98829.91;;;6.52;79.67
5755;BME280;2902;42.130;24.732;2023-04-05T00:56:02;98835.47;;;6.57;79.52
5755;BME280;2902;42.130;24.732;2023-04-05T00:58:29;98833.31;;;6.46;79.92
5755;BME280;2902;42.130;24.732;2023-04-05T01:01:01;98839.84;;;6.50;80.04
5755;BME280;2902;42.130;24.732;2023-04-05T01:03:31;98834.50;;;6.43;79.80
5755;BME280;2902;42.130;24.732;2023-04-05T01:06:15;98839.78;;;6.43;80.01
5755;BME280;2902;42.130;24.732;2023-04-05T01:08:51;98836.56;;;6.48;80.21
5755;BME280;2902;42.130;24.732;2023-04-05T01:11:22;98847.84;;;6.56;79.50
5755;BME280;2902;42.130;24.732;2023-04-05T01:13:57;98841.72;;;6.56;79.22
5755;BME280;2902;42.130;24.732;2023-04-05T01:16:23;98849.28;;;6.59;79.42
5755;BME280;2902;42.130;24.732;2023-04-05T01:18:50;98834.56;;;6.50;79.66
5755;BME280;2902;42.130;24.732;2023-04-05T01:21:59;98832.06;;;6.42;79.56
5755;BME280;2902;42.130;24.732;2023-04-05T01:24:49;98837.47;;;6.55;80.19
5755;BME280;2902;42.130;24.732;2023-04-05T01:27:21;98846.56;;;6.52;79.96
5755;BME280;2902;42.130;24.732;2023-04-05T01:30:02;98850.28;;;6.58;79.65
5755;BME280;2902;42.130;24.732;2023-04-05T01:32:39;98854.63;;;6.30;80.24
5755;BME280;2902;42.130;24.732;2023-04-05T01:35:17;98837.63;;;6.32;79.36
5755;BME280;2902;42.130;24.732;2023-04-05T01:37:49;98855.63;;;6.43;80.26
5755;BME280;2902;42.130;24.732;2023-04-05T01:40:18;98849.34;;;6.30;80.17
5755;BME280;2902;42.130;24.732;2023-04-05T01:42:45;98849.72;;;6.27;80.57
5755;BME280;2902;42.130;24.732;2023-04-05T01:45:13;98855.38;;;6.24;80.51
5755;BME280;2902;42.130;24.732;2023-04-05T01:47:40;98861.91;;;6.28;80.42
5755;BME280;2902;42.130;24.732;2023-04-05T01:50:08;98861.16;;;6.34;80.67
5755;BME280;2902;42.130;24.732;2023-04-05T01:52:34;98851.94;;;6.09;81.38
5755;BME280;2902;42.130;24.732;2023-04-05T01:55:01;98854.66;;;6.01;81.24
5755;BME280;2902;42.130;24.732;2023-04-05T01:57:28;98838.31;;;5.91;81.57
5755;BME280;2902;42.130;24.732;2023-04-05T01:59:55;98866.81;;;6.16;81.50
5755;BME280;2902;42.130;24.732;2023-04-05T02:02:23;98872.28;;;6.15;81.56
5755;BME280;2902;42.130;24.732;2023-04-05T02:04:50;98863.09;;;6.11;81.10
5755;BME280;2902;42.130;24.732;2023-04-05T02:07:16;98878.47;;;6.07;81.32
5755;BME280;2902;42.130;24.732;2023-04-05T02:09:43;98868.19;;;5.98;81.30
5755;BME280;2902;42.130;24.732;2023-04-05T02:12:10;98879.91;;;6.10;81.20
5755;BME280;2902;42.130;24.732;2023-04-05T02:14:36;98875.84;;;6.07;81.49
5755;BME280;2902;42.130;24.732;2023-04-05T02:17:03;98873.38;;;6.06;81.42
5755;BME280;2902;42.130;24.732;2023-04-05T02:19:31;98874.56;;;6.03;81.21
5755;BME280;2902;42.130;24.732;2023-04-05T02:22:05;98881.28;;;6.06;80.80
5755;BME280;2902;42.130;24.732;2023-04-05T02:24:32;98879.47;;;6.06;80.59
5755;BME280;2902;42.130;24.732;2023-04-05T02:26:58;98883.00;;;5.99;80.92
5755;BME280;2902;42.130;24.732;2023-04-05T02:29:25;98883.38;;;5.96;81.76
5755;BME280;2902;42.130;24.732;2023-04-05T02:31:52;98892.94;;;5.97;81.42
5755;BME280;2902;42.130;24.732;2023-04-05T02:34:19;98893.84;;;5.89;81.91
5755;BME280;2902;42.130;24.732;2023-04-05T02:36:48;98896.31;;;5.91;81.58
5755;BME280;2902;42.130;24.732;2023-04-05T02:39:15;98896.75;;;5.94;81.49
5755;BME280;2902;42.130;24.732;2023-04-05T02:41:42;98895.19;;;6.00;81.16
5755;BME280;2902;42.130;24.732;2023-04-05T02:44:09;98897.19;;;5.98;80.71
5755;BME280;2902;42.130;24.732;2023-04-05T02:46:35;98898.38;;;5.95;80.88
5755;BME280;2902;42.130;24.732;2023-04-05T02:49:02;98902.28;;;5.85;80.70
5755;BME280;2902;42.130;24.732;2023-04-05T02:51:29;98907.19;;;5.88;80.75
5755;BME280;2902;42.130;24.732;2023-04-05T02:54:00;98905.84;;;5.92;80.88
5755;BME280;2902;42.130;24.732;2023-04-05T02:56:27;98909.75;;;5.96;80.46
5755;BME280;2902;42.130;24.732;2023-04-05T02:58:54;98909.28;;;5.92;80.61
5755;BME280;2902;42.130;24.732;2023-04-05T03:01:21;98911.53;;;5.81;80.63
5755;BME280;2902;42.130;24.732;2023-04-05T03:03:48;98906.25;;;5.81;80.26
5755;BME280;2902;42.130;24.732;2023-04-05T03:06:15;98910.19;;;5.85;81.15
5755;BME280;2902;42.130;24.732;2023-04-05T03:08:42;98909.84;;;5.88;80.63
5755;BME280;2902;42.130;24.732;2023-04-05T03:11:12;98913.00;;;5.83;80.34
5755;BME280;2902;42.130;24.732;2023-04-05T03:13:39;98907.53;;;5.85;80.56
5755;BME280;2902;42.130;24.732;2023-04-05T03:16:06;98917.25;;;5.84;80.78
5755;BME280;2902;42.130;24.732;2023-04-05T03:18:32;98912.38;;;5.81;80.77
5755;BME280;2902;42.130;24.732;2023-04-05T03:20:59;98874.59;;;5.51;80.70
5755;BME280;2902;42.130;24.732;2023-04-05T03:23:28;98921.81;;;5.90;80.79
5755;BME280;2902;42.130;24.732;2023-04-05T03:25:57;98919.72;;;5.86;81.04
5755;BME280;2902;42.130;24.732;2023-04-05T03:28:26;98917.06;;;5.86;80.97
5755;BME280;2902;42.130;24.732;2023-04-05T03:30:53;98919.72;;;5.86;80.64
5755;BME280;2902;42.130;24.732;2023-04-05T03:33:20;98918.56;;;5.80;80.50
5755;BME280;2902;42.130;24.732;2023-04-05T03:35:47;98915.91;;;5.88;80.41
5755;BME280;2902;42.130;24.732;2023-04-05T03:38:13;98920.63;;;5.93;80.13
5755;BME280;2902;42.130;24.732;2023-04-05T03:40:40;98923.34;;;5.85;80.12
5755;BME280;2902;42.130;24.732;2023-04-05T03:43:07;98926.66;;;5.87;80.07
5755;BME280;2902;42.130;24.732;2023-04-05T03:45:36;98920.09;;;5.83;80.56
5755;BME280;2902;42.130;24.732;2023-04-05T03:48:03;98925.81;;;5.86;80.29
5755;BME280;2902;42.130;24.732;2023-04-05T03:50:30;98934.25;;;5.82;80.31
5755;BME280;2902;42.130;24.732;2023-04-05T03:52:57;98932.47;;;5.97;79.63
5755;BME280;2902;42.130;24.732;2023-04-05T03:55:24;98933.19;;;5.91;79.57
5755;BME280;2902;42.130;24.732;2023-04-05T03:57:51;98926.19;;;5.98;79.63
5755;BME280;2902;42.130;24.732;2023-04-05T04:00:18;98935.09;;;5.97;79.51
5755;BME280;2902;42.130;24.732;2023-04-05T04:02:46;98933.75;;;6.01;80.02
5755;BME280;2902;42.130;24.732;2023-04-05T04:05:15;98939.09;;;6.07;79.56
5755;BME280;2902;42.130;24.732;2023-04-05T04:07:43;98938.66;;;6.04;79.31
5755;BME280;2902;42.130;24.732;2023-04-05T04:10:12;98940.09;;;5.92;79.36
5755;BME280;2902;42.130;24.732;2023-04-05T04:12:39;98945.19;;;6.08;79.57
5755;BME280;2902;42.130;24.732;2023-04-05T04:15:06;98944.81;;;6.11;79.27
5755;BME280;2902;42.130;24.732;2023-04-05T04:17:35;98949.75;;;6.14;79.18
5755;BME280;2902;42.130;24.732;2023-04-05T04:20:04;98963.75;;;6.29;79.36
5755;BME280;2902;42.130;24.732;2023-04-05T04:22:35;98953.81;;;6.60;79.69
5755;BME280;2902;42.130;24.732;2023-04-05T04:25:03;98964.38;;;7.10;77.62
5755;BME280;2902;42.130;24.732;2023-04-05T04:27:34;98982.31;;;7.56;74.63
5755;BME280;2902;42.130;24.732;2023-04-05T04:30:01;98976.66;;;7.59;73.38
5755;BME280;2902;42.130;24.732;2023-04-05T04:32:28;98983.06;;;7.50;73.62
5755;BME280;2902;42.130;24.732;2023-04-05T04:35:11;98981.38;;;7.43;74.08
5755;BME280;2902;42.130;24.732;2023-04-05T04:37:38;98985.28;;;7.26;73.69
5755;BME280;2902;42.130;24.732;2023-04-05T04:40:11;98981.88;;;6.96;74.34
5755;BME280;2902;42.130;24.732;2023-04-05T04:42:41;98980.66;;;6.78;75.72
5755;BME280;2902;42.130;24.732;2023-04-05T04:45:11;98993.78;;;6.57;75.16
5755;BME280;2902;42.130;24.732;2023-04-05T04:47:40;98986.66;;;6.43;75.57
5755;BME280;2902;42.130;24.732;2023-04-05T04:50:08;98989.22;;;6.51;76.40
5755;BME280;2902;42.130;24.732;2023-04-05T04:52:37;98991.59;;;6.46;76.01
5755;BME280;2902;42.130;24.732;2023-04-05T04:55:05;98996.22;;;6.44;76.23
5755;BME280;2902;42.130;24.732;2023-04-05T04:57:31;98978.31;;;6.25;76.18
5755;BME280;2902;42.130;24.732;2023-04-05T04:59:58;99005.59;;;6.46;75.34
5755;BME280;2902;42.130;24.732;2023-04-05T05:02:25;98993.31;;;6.53;74.72
5755;BME280;2902;42.130;24.732;2023-04-05T05:04:52;98999.69;;;7.09;72.88
5755;BME280;2902;42.130;24.732;2023-04-05T05:07:19;99014.72;;;7.65;71.16
5755;BME280;2902;42.130;24.732;2023-04-05T05:09:48;99012.53;;;8.17;69.48
5755;BME280;2902;42.130;24.732;2023-04-05T05:12:18;99007.59;;;8.69;73.68
5755;BME280;2902;42.130;24.732;2023-04-05T05:14:46;99027.88;;;8.55;68.77
5755;BME280;2902;42.130;24.732;2023-04-05T05:17:13;99028.69;;;8.01;68.76
5755;BME280;2902;42.130;24.732;2023-04-05T05:19:40;99021.03;;;7.64;69.01
5755;BME280;2902;42.130;24.732;2023-04-05T05:22:07;99021.84;;;7.29;70.29
5755;BME280;2902;42.130;24.732;2023-04-05T05:24:33;99017.69;;;7.20;72.20
5755;BME280;2902;42.130;24.732;2023-04-05T05:27:02;99023.88;;;7.27;71.85
5755;BME280;2902;42.130;24.732;2023-04-05T05:29:29;99029.16;;;7.27;71.43
5755;BME280;2902;42.130;24.732;2023-04-05T05:31:57;99025.38;;;7.15;71.74
5755;BME280;2902;42.130;24.732;2023-04-05T05:34:24;99021.78;;;7.22;71.85
5755;BME280;2902;42.130;24.732;2023-04-05T05:36:50;99024.69;;;7.27;72.07
5755;BME280;2902;42.130;24.732;2023-04-05T05:39:17;99024.53;;;7.14;71.95
5755;BME280;2902;42.130;24.732;2023-04-05T05:41:45;99018.19;;;6.94;72.47
5755;BME280;2902;42.130;24.732;2023-04-05T05:44:13;99026.00;;;7.02;72.61
5755;BME280;2902;42.130;24.732;2023-04-05T05:46:39;99024.47;;;7.08;72.17
5755;BME280;2902;42.130;24.732;2023-04-05T05:49:06;99024.19;;;7.03;72.46
5755;BME280;2902;42.130;24.732;2023-04-05T05:51:33;99026.94;;;6.95;72.47
5755;BME280;2902;42.130;24.732;2023-04-05T05:54:00;99026.94;;;6.95;72.71
5755;BME280;2902;42.130;24.732;2023-04-05T05:56:27;99026.94;;;6.95;73.14
5755;BME280;2902;42.130;24.732;2023-04-05T05:58:54;99019.66;;;6.97;72.96
5755;BME280;2902;42.130;24.732;2023-04-05T06:01:22;99017.09;;;6.89;71.98
5755;BME280;2902;42.130;24.732;2023-04-05T06:03:52;99020.22;;;6.92;71.68
5755;BME280;2902;42.130;24.732;2023-04-05T06:06:19;99022.28;;;6.97;71.36
5755;BME280;2902;42.130;24.732;2023-04-05T06:08:48;99023.94;;;6.98;71.15
5755;BME280;2902;42.130;24.732;2023-04-05T06:11:16;99020.84;;;6.94;71.53
5755;BME280;2902;42.130;24.732;2023-04-05T06:13:43;99016.13;;;6.90;71.40
5755;BME280;2902;42.130;24.732;2023-04-05T06:16:10;99032.75;;;6.90;71.28
5755;BME280;2902;42.130;24.732;2023-04-05T06:18:38;99023.41;;;6.88;72.01
5755;BME280;2902;42.130;24.732;2023-04-05T06:21:05;99036.84;;;7.07;71.88
5755;BME280;2902;42.130;24.732;2023-04-05T06:23:32;99040.53;;;7.27;71.85
5755;BME280;2902;42.130;24.732;2023-04-05T06:25:58;99053.19;;;7.32;69.58
5755;BME280;2902;42.130;24.732;2023-04-05T06:28:25;99043.50;;;7.18;70.15
5755;BME280;2902;42.130;24.732;2023-04-05T06:30:52;99044.53;;;7.23;70.06
5755;BME280;2902;42.130;24.732;2023-04-05T06:33:19;99046.50;;;7.15;69.70
5755;BME280;2902;42.130;24.732;2023-04-05T06:35:47;99041.84;;;7.17;70.58
5755;BME280;2902;42.130;24.732;2023-04-05T06:38:14;99057.22;;;7.28;70.56
5755;BME280;2902;42.130;24.732;2023-04-05T06:40:41;99054.31;;;7.23;69.58
5755;BME280;2902;42.130;24.732;2023-04-05T06:43:07;99058.97;;;7.42;69.57
5755;BME280;2902;42.130;24.732;2023-04-05T06:45:35;99058.97;;;7.42;69.25
5755;BME280;2902;42.130;24.732;2023-04-05T06:48:02;99068.06;;;7.54;67.99
5755;BME280;2902;42.130;24.732;2023-04-05T06:50:29;99066.00;;;7.49;68.50
5755;BME280;2902;42.130;24.732;2023-04-05T06:52:57;99060.25;;;7.46;69.33
5755;BME280;2902;42.130;24.732;2023-04-05T06:55:23;99072.72;;;7.52;68.94
5755;BME280;2902;42.130;24.732;2023-04-05T06:57:50;99069.06;;;7.53;69.29
5755;BME280;2902;42.130;24.732;2023-04-05T07:00:17;99078.25;;;7.57;68.60
5755;BME280;2902;42.130;24.732;2023-04-05T07:02:44;99079.41;;;7.69;68.97
5755;BME280;2902;42.130;24.732;2023-04-05T07:05:11;99080.03;;;7.71;68.21
5755;BME280;2902;42.130;24.732;2023-04-05T07:07:39;99092.34;;;7.43;68.38
5755;BME280;2902;42.130;24.732;2023-04-05T07:10:08;99087.88;;;7.43;68.81
5755;BME280;2902;42.130;24.732;2023-04-05T07:12:35;99084.13;;;7.38;69.20
5755;BME280;2902;42.130;24.732;2023-04-05T07:15:03;99095.69;;;7.51;68.70
5755;BME280;2902;42.130;24.732;2023-04-05T07:17:30;99099.97;;;7.38;67.99
5755;BME280;2902;42.130;24.732;2023-04-05T07:19:57;99098.81;;;7.40;68.10
5755;BME280;2902;42.130;24.732;2023-04-05T07:22:24;99100.38;;;7.35;68.03
5755;BME280;2902;42.130;24.732;2023-04-05T07:24:50;99101.00;;;7.37;67.74
5755;BME280;2902;42.130;24.732;2023-04-05T07:27:19;99103.63;;;7.37;69.27
5755;BME280;2902;42.130;24.732;2023-04-05T07:29:46;99095.50;;;7.53;68.33
5755;BME280;2902;42.130;24.732;2023-04-05T07:32:12;99096.22;;;7.61;68.64
5755;BME280;2902;42.130;24.732;2023-04-05T07:34:39;99109.97;;;7.57;68.18
5755;BME280;2902;42.130;24.732;2023-04-05T07:37:06;99100.63;;;7.75;68.87
5755;BME280;2902;42.130;24.732;2023-04-05T07:39:33;99104.91;;;7.76;68.10
5755;BME280;2902;42.130;24.732;2023-04-05T07:42:00;99115.53;;;7.83;66.54
5755;BME280;2902;42.130;24.732;2023-04-05T07:44:28;99113.97;;;7.88;66.92
5755;BME280;2902;42.130;24.732;2023-04-05T07:46:54;99117.31;;;7.97;66.30
5755;BME280;2902;42.130;24.732;2023-04-05T07:49:24;99121.84;;;8.03;66.63
5755;BME280;2902;42.130;24.732;2023-04-05T07:51:53;99114.25;;;8.14;66.60
5755;BME280;2902;42.130;24.732;2023-04-05T07:54:20;99123.16;;;8.13;65.84
5755;BME280;2902;42.130;24.732;2023-04-05T07:56:47;99127.25;;;8.16;65.06
5755;BME280;2902;42.130;24.732;2023-04-05T07:59:15;99128.09;;;8.16;65.46
5755;BME280;2902;42.130;24.732;2023-04-05T08:01:43;99139.28;;;8.33;66.48
5755;BME280;2902;42.130;24.732;2023-04-05T08:04:10;99135.22;;;8.58;66.01
5755;BME280;2902;42.130;24.732;2023-04-05T08:06:36;99135.53;;;8.76;63.77
5755;BME280;2902;42.130;24.732;2023-04-05T08:09:04;99133.22;;;8.94;63.90
5755;BME280;2902;42.130;24.732;2023-04-05T08:11:32;99146.41;;;9.15;62.60
5755;BME280;2902;42.130;24.732;2023-04-05T08:13:59;99143.63;;;9.29;61.94
5755;BME280;2902;42.130;24.732;2023-04-05T08:16:26;99152.41;;;9.36;61.21
5755;BME280;2902;42.130;24.732;2023-04-05T08:18:54;99152.50;;;9.56;60.76
5755;BME280;2902;42.130;24.732;2023-04-05T08:21:21;99153.44;;;9.42;61.12
5755;BME280;2902;42.130;24.732;2023-04-05T08:23:48;99157.63;;;9.57;61.03
5755;BME280;2902;42.130;24.732;2023-04-05T08:26:15;99154.66;;;9.80;61.25
5755;BME280;2902;42.130;24.732;2023-04-05T08:28:42;99159.75;;;9.88;60.88
5755;BME280;2902;42.130;24.732;2023-04-05T08:31:09;99151.59;;;9.89;58.94
5755;BME280;2902;42.130;24.732;2023-04-05T08:33:36;99170.34;;;9.88;59.71
5755;BME280;2902;42.130;24.732;2023-04-05T08:36:05;99170.41;;;10.01;59.44
5755;BME280;2902;42.130;24.732;2023-04-05T08:38:32;99171.31;;;10.27;58.17
5755;BME280;2902;42.130;24.732;2023-04-05T08:41:06;99169.66;;;10.20;57.50
5755;BME280;2902;42.130;24.732;2023-04-05T08:43:43;99173.72;;;10.16;58.68
5755;BME280;2902;42.130;24.732;2023-04-05T08:46:14;99173.00;;;9.88;59.64
5755;BME280;2902;42.130;24.732;2023-04-05T08:48:41;99176.84;;;9.79;58.96
5755;BME280;2902;42.130;24.732;2023-04-05T08:51:10;99177.53;;;9.47;58.08
5755;BME280;2902;42.130;24.732;2023-04-05T08:53:37;99176.94;;;9.51;60.39
5755;BME280;2902;42.130;24.732;2023-04-05T08:56:04;99167.59;;;9.55;60.42
5755;BME280;2902;42.130;24.732;2023-04-05T08:58:34;99179.50;;;9.79;60.19
5755;BME280;2902;42.130;24.732;2023-04-05T09:01:03;99189.94;;;9.87;58.68
5755;BME280;2902;42.130;24.732;2023-04-05T09:03:35;99186.06;;;9.83;59.07
5755;BME280;2902;42.130;24.732;2023-04-05T09:06:04;99162.19;;;9.83;57.98
5755;BME280;2902;42.130;24.732;2023-04-05T09:08:34;99191.53;;;9.75;58.64
5755;BME280;2902;42.130;24.732;2023-04-05T09:11:01;99187.47;;;9.79;58.15
5755;BME280;2902;42.130;24.732;2023-04-05T09:13:27;99186.69;;;9.85;59.00
5755;BME280;2902;42.130;24.732;2023-04-05T09:15:55;99194.44;;;9.80;57.91
5755;BME280;2902;42.130;24.732;2023-04-05T09:18:22;99186.66;;;9.38;57.80
5755;BME280;2902;42.130;24.732;2023-04-05T09:20:49;99193.13;;;9.69;57.84
5755;BME280;2902;42.130;24.732;2023-04-05T09:23:15;99189.50;;;9.70;58.02
5755;BME280;2902;42.130;24.732;2023-04-05T09:25:43;99190.25;;;9.58;58.66
5755;BME280;2902;42.130;24.732;2023-04-05T09:28:12;99195.94;;;9.55;58.56
5755;BME280;2902;42.130;24.732;2023-04-05T09:30:44;99162.44;;;9.07;57.89
5755;BME280;2902;42.130;24.732;2023-04-05T09:33:15;99197.59;;;9.56;58.50
5755;BME280;2902;42.130;24.732;2023-04-05T09:35:48;99194.69;;;9.51;58.57
5755;BME280;2902;42.130;24.732;2023-04-05T09:38:15;99193.97;;;9.70;58.94
5755;BME280;2902;42.130;24.732;2023-04-05T09:40:44;99189.03;;;9.60;57.90
5755;BME280;2902;42.130;24.732;2023-04-05T09:43:12;99199.97;;;9.51;57.66
5755;BME280;2902;42.130;24.732;2023-04-05T09:45:41;99187.16;;;9.48;58.33
5755;BME280;2902;42.130;24.732;2023-04-05T09:48:10;99195.88;;;9.82;58.26
5755;BME280;2902;42.130;24.732;2023-04-05T09:50:38;99191.19;;;9.91;58.32
5755;BME280;2902;42.130;24.732;2023-04-05T09:53:06;99203.03;;;9.88;57.85
5755;BME280;2902;42.130;24.732;2023-04-05T09:55:34;99197.16;;;9.59;58.55
5755;BME280;2902;42.130;24.732;2023-04-05T09:58:02;99190.34;;;9.37;58.72
5755;BME280;2902;42.130;24.732;2023-04-05T10:00:29;99194.63;;;9.38;59.73
5755;BME280;2902;42.130;24.732;2023-04-05T10:02:56;99189.25;;;9.25;60.51
5755;BME280;2902;42.130;24.732;2023-04-05T10:05:24;99195.19;;;9.27;59.56
5755;BME280;2902;42.130;24.732;2023-04-05T10:07:52;99188.25;;;9.32;60.16
5755;BME280;2902;42.130;24.732;2023-04-05T10:10:21;99188.75;;;9.08;60.00
5755;BME280;2902;42.130;24.732;2023-04-05T10:12:49;99186.81;;;8.96;60.63
5755;BME280;2902;42.130;24.732;2023-04-05T10:15:17;99188.63;;;8.95;61.33
5755;BME280;2902;42.130;24.732;2023-04-05T10:17:47;99198.47;;;9.01;61.72
5755;BME280;2902;42.130;24.732;2023-04-05T10:20:16;99180.25;;;9.19;62.05
5755;BME280;2902;42.130;24.732;2023-04-05T10:22:56;99198.75;;;9.47;61.01
5755;BME280;2902;42.130;24.732;2023-04-05T10:25:30;99185.56;;;9.60;61.66
5755;BME280;2902;42.130;24.732;2023-04-05T10:28:09;99181.00;;;9.47;59.85
5755;BME280;2902;42.130;24.732;2023-04-05T10:30:41;99187.56;;;9.51;60.70
5755;BME280;2902;42.130;24.732;2023-04-05T10:33:15;99194.34;;;9.67;60.76
5755;BME280;2902;42.130;24.732;2023-04-05T10:35:58;99193.19;;;9.76;61.18
5755;BME280;2902;42.130;24.732;2023-04-05T10:38:29;99191.63;;;9.94;59.77
5755;BME280;2902;42.130;24.732;2023-04-05T10:41:09;99196.44;;;9.71;60.34
5755;BME280;2902;42.130;24.732;2023-04-05T10:43:38;99177.31;;;9.42;60.37
5755;BME280;2902;42.130;24.732;2023-04-05T10:46:07;99163.16;;;9.28;62.31
5755;BME280;2902;42.130;24.732;2023-04-05T10:48:39;99202.13;;;9.68;61.49
5755;BME280;2902;42.130;24.732;2023-04-05T10:51:10;99202.47;;;9.59;61.25
5755;BME280;2902;42.130;24.732;2023-04-05T10:53:38;99194.69;;;9.51;62.31
5755;BME280;2902;42.130;24.732;2023-04-05T10:56:06;99200.09;;;9.36;61.11
5755;BME280;2902;42.130;24.732;2023-04-05T10:58:34;99190.72;;;9.34;61.24
5755;BME280;2902;42.130;24.732;2023-04-05T11:01:02;99196.63;;;9.29;61.13
5755;BME280;2902;42.130;24.732;2023-04-05T11:03:47;99194.19;;;9.34;61.51
5755;BME280;2902;42.130;24.732;2023-04-05T11:06:22;99180.91;;;9.28;62.31
5755;BME280;2902;42.130;24.732;2023-04-05T11:08:52;99192.72;;;9.66;61.43
5755;BME280;2902;42.130;24.732;2023-04-05T11:11:22;99202.13;;;9.75;60.54
5755;BME280;2902;42.130;24.732;2023-04-05T11:13:52;99203.38;;;9.79;60.17
5755;BME280;2902;42.130;24.732;2023-04-05T11:16:19;99207.09;;;9.91;59.78
5755;BME280;2902;42.130;24.732;2023-04-05T11:18:49;99200.13;;;9.77;60.34
5755;BME280;2902;42.130;24.732;2023-04-05T11:21:21;99203.59;;;9.84;60.10
5755;BME280;2902;42.130;24.732;2023-04-05T11:24:10;99197.59;;;9.56;60.41
5755;BME280;2902;42.130;24.732;2023-04-05T11:26:55;99196.78;;;9.62;60.34
5755;BME280;2902;42.130;24.732;2023-04-05T11:29:45;99201.75;;;9.78;61.24
5755;BME280;2902;42.130;24.732;2023-04-05T11:32:15;99202.44;;;9.93;61.94
5755;BME280;2902;42.130;24.732;2023-04-05T11:34:44;99179.84;;;10.10;64.87
5755;BME280;2902;42.130;24.732;2023-04-05T11:37:23;99193.78;;;10.25;64.05
5755;BME280;2902;42.130;24.732;2023-04-05T11:40:25;99208.38;;;10.01;60.42
5755;BME280;2902;42.130;24.732;2023-04-05T11:43:00;99201.38;;;9.81;60.90
5755;BME280;2902;42.130;24.732;2023-04-05T11:45:29;99203.03;;;9.95;60.86
5755;BME280;2902;42.130;24.732;2023-04-05T11:47:56;99201.00;;;9.90;61.37
5755;BME280;2902;42.130;24.732;2023-04-05T11:50:27;99194.69;;;9.98;61.86
5755;BME280;2902;42.130;24.732;2023-04-05T11:53:13;99202.34;;;10.20;60.89
5755;BME280;2902;42.130;24.732;2023-04-05T11:55:41;99199.28;;;10.23;60.53
5755;BME280;2902;42.130;24.732;2023-04-05T11:58:12;99208.88;;;10.24;60.13
5755;BME280;2902;42.130;24.732;2023-04-05T12:00:39;99204.25;;;9.92;61.29
5755;BME280;2902;42.130;24.732;2023-04-05T12:03:10;99206.22;;;9.77;61.39
5755;BME280;2902;42.130;24.732;2023-04-05T12:05:46;99196.44;;;9.78;62.45
5755;BME280;2902;42.130;24.732;2023-04-05T12:08:13;99202.28;;;9.60;62.31
5755;BME280;2902;42.130;24.732;2023-04-05T12:10:39;99191.03;;;9.52;63.44
5755;BME280;2902;42.130;24.732;2023-04-05T12:13:06;99197.94;;;9.46;62.48
5755;BME280;2902;42.130;24.732;2023-04-05T12:15:36;99195.97;;;9.61;62.50
5755;BME280;2902;42.130;24.732;2023-04-05T12:18:03;99196.34;;;9.52;63.31
5755;BME280;2902;42.130;24.732;2023-04-05T12:20:32;99198.19;;;9.58;61.32
5755;BME280;2902;42.130;24.732;2023-04-05T12:23:00;99206.63;;;9.68;60.52
5755;BME280;2902;42.130;24.732;2023-04-05T12:25:29;99208.88;;;9.77;61.44
5755;BME280;2902;42.130;24.732;2023-04-05T12:27:56;99211.63;;;9.97;61.42
5755;BME280;2902;42.130;24.732;2023-04-05T12:30:23;99202.72;;;10.11;60.40
5755;BME280;2902;42.130;24.732;2023-04-05T12:32:51;99198.97;;;9.99;61.37
5755;BME280;2902;42.130;24.732;2023-04-05T12:35:19;99203.88;;;9.95;62.92
5755;BME280;2902;42.130;24.732;2023-04-05T12:37:46;99178.91;;;9.77;64.92
5755;BME280;2902;42.130;24.732;2023-04-05T12:40:19;99195.28;;;10.00;63.48
5755;BME280;2902;42.130;24.732;2023-04-05T12:42:46;99194.34;;;9.67;63.13
5755;BME280;2902;42.130;24.732;2023-04-05T12:45:14;99192.91;;;9.64;62.78
5755;BME280;2902;42.130;24.732;2023-04-05T12:47:51;99193.94;;;9.63;63.78
5755;BME280;2902;42.130;24.732;2023-04-05T12:50:19;99193.19;;;9.35;62.56
5755;BME280;2902;42.130;24.732;2023-04-05T12:52:55;99208.03;;;9.30;62.92
5755;BME280;2902;42.130;24.732;2023-04-05T12:55:24;99205.38;;;9.30;62.77
5755;BME280;2902;42.130;24.732;2023-04-05T12:57:52;99195.78;;;9.29;63.73
5755;BME280;2902;42.130;24.732;2023-04-05T13:00:20;99186.56;;;9.59;67.02
5755;BME280;2902;42.130;24.732;2023-04-05T13:02:51;99204.47;;;9.44;63.25
5755;BME280;2902;42.130;24.732;2023-04-05T13:05:22;99193.84;;;9.44;65.57
5755;BME280;2902;42.130;24.732;2023-04-05T13:07:49;99193.69;;;9.18;68.84
5755;BME280;2902;42.130;24.732;2023-04-05T13:10:17;99181.38;;;9.04;67.36
5755;BME280;2902;42.130;24.732;2023-04-05T13:12:46;99172.84;;;9.08;68.44
5755;BME280;2902;42.130;24.732;2023-04-05T13:15:13;99172.28;;;9.19;68.70
5755;BME280;2902;42.130;24.732;2023-04-05T13:17:40;99184.66;;;9.40;68.67
5755;BME280;2902;42.130;24.732;2023-04-05T13:20:07;99189.72;;;9.35;66.30
5755;BME280;2902;42.130;24.732;2023-04-05T13:22:34;99199.78;;;9.52;66.20
5755;BME280;2902;42.130;24.732;2023-04-05T13:25:01;99201.88;;;9.57;65.11
5755;BME280;2902;42.130;24.732;2023-04-05T13:27:28;99192.59;;;9.40;65.25
5755;BME280;2902;42.130;24.732;2023-04-05T13:29:56;99213.41;;;9.43;63.61
5755;BME280;2902;42.130;24.732;2023-04-05T13:32:23;99206.78;;;9.26;62.97